sensor_id;sensor_type;location;lat;lon;timestamp;P1;durP1;ratioP1;P2;durP2;ratioP2
69358;SDS011;56520;49.066;8.660;2024-03-02T00:03:01;7.05;;;2.70;;
69358;SDS011;56520;49.066;8.660;2024-03-02T00:05:27;6.80;;;2.20;;
69358;SDS011;56520;49.066;8.660;2024-03-02T00:07:53;4.95;;;1.85;;
69358;SDS011;56520;49.066;8.660;2024-03-02T00:10:26;7.00;;;2.83;;
69358;SDS011;56520;49.066;8.660;2024-03-02T00:12:56;6.72;;;2.63;;
69358;SDS011;56520;49.066;8.660;2024-03-02T00:15:28;5.93;;;2.33;;
69358;SDS011;56520;49.066;8.660;2024-03-02T00:17:58;5.88;;;2.70;;
69358;SDS011;56520;49.066;8.660;2024-03-02T00:20:26;4.47;;;2.10;;
69358;SDS011;56520;49.066;8.660;2024-03-02T00:22:55;7.25;;;2.40;;
69358;SDS011;56520;49.066;8.660;2024-03-02T00:28:13;4.30;;;1.85;;
69358;SDS011;56520;49.066;8.660;2024-03-02T00:33:25;3.92;;;1.83;;
69358;SDS011;56520;49.066;8.660;2024-03-02T00:35:53;5.88;;;2.55;;
69358;SDS011;56520;49.066;8.660;2024-03-02T00:38:18;6.40;;;2.70;;
69358;SDS011;56520;49.066;8.660;2024-03-02T00:40:44;8.45;;;2.40;;
69358;SDS011;56520;49.066;8.660;2024-03-02T00:45:54;6.78;;;2.58;;
69358;SDS011;56520;49.066;8.660;2024-03-02T00:48:20;5.65;;;2.55;;
69358;SDS011;56520;49.066;8.660;2024-03-02T00:50:46;6.47;;;2.53;;
69358;SDS011;56520;49.066;8.660;2024-03-02T00:53:15;7.07;;;2.55;;
69358;SDS011;56520;49.066;8.660;2024-03-02T00:55:42;6.35;;;2.80;;
69358;SDS011;56520;49.066;8.660;2024-03-02T00:58:09;14.23;;;1.98;;
69358;SDS011;56520;49.066;8.660;2024-03-02T01:03:00;4.93;;;1.83;;
69358;SDS011;56520;49.066;8.660;2024-03-02T01:05:25;4.78;;;1.95;;
69358;SDS011;56520;49.066;8.660;2024-03-02T01:07:50;4.80;;;1.92;;
69358;SDS011;56520;49.066;8.660;2024-03-02T01:10:16;4.20;;;1.67;;
69358;SDS011;56520;49.066;8.660;2024-03-02T01:12:41;5.05;;;1.70;;
69358;SDS011;56520;49.066;8.660;2024-03-02T01:17:33;7.00;;;1.80;;
69358;SDS011;56520;49.066;8.660;2024-03-02T01:19:58;5.05;;;2.15;;
69358;SDS011;56520;49.066;8.660;2024-03-02T01:22:24;4.20;;;1.83;;
69358;SDS011;56520;49.066;8.660;2024-03-02T01:24:50;4.20;;;1.55;;
69358;SDS011;56520;49.066;8.660;2024-03-02T01:29:41;3.40;;;1.27;;
69358;SDS011;56520;49.066;8.660;2024-03-02T01:32:07;3.58;;;1.77;;
69358;SDS011;56520;49.066;8.660;2024-03-02T01:34:32;4.07;;;1.50;;
69358;SDS011;56520;49.066;8.660;2024-03-02T01:36:57;3.65;;;1.73;;
69358;SDS011;56520;49.066;8.660;2024-03-02T01:39:23;4.20;;;1.67;;
69358;SDS011;56520;49.066;8.660;2024-03-02T01:41:48;4.38;;;1.58;;
69358;SDS011;56520;49.066;8.660;2024-03-02T01:46:39;2.85;;;1.15;;
69358;SDS011;56520;49.066;8.660;2024-03-02T01:49:05;3.45;;;1.67;;
69358;SDS011;56520;49.066;8.660;2024-03-02T01:51:31;4.25;;;1.40;;
69358;SDS011;56520;49.066;8.660;2024-03-02T01:56:22;4.15;;;1.35;;
69358;SDS011;56520;49.066;8.660;2024-03-02T01:58:47;3.72;;;1.45;;
69358;SDS011;56520;49.066;8.660;2024-03-02T02:03:38;4.22;;;1.63;;
69358;SDS011;56520;49.066;8.660;2024-03-02T02:06:05;4.03;;;1.38;;
69358;SDS011;56520;49.066;8.660;2024-03-02T02:08:32;3.85;;;1.45;;
69358;SDS011;56520;49.066;8.660;2024-03-02T02:13:23;4.70;;;1.73;;
69358;SDS011;56520;49.066;8.660;2024-03-02T02:18:13;3.63;;;1.37;;
69358;SDS011;56520;49.066;8.660;2024-03-02T02:23:04;2.75;;;0.93;;
69358;SDS011;56520;49.066;8.660;2024-03-02T02:25:35;2.50;;;1.20;;
69358;SDS011;56520;49.066;8.660;2024-03-02T02:30:30;2.83;;;1.27;;
69358;SDS011;56520;49.066;8.660;2024-03-02T02:32:56;3.30;;;1.35;;
69358;SDS011;56520;49.066;8.660;2024-03-02T02:35:23;3.38;;;1.50;;
69358;SDS011;56520;49.066;8.660;2024-03-02T02:37:52;3.45;;;1.27;;
69358;SDS011;56520;49.066;8.660;2024-03-02T02:40:18;3.08;;;1.38;;
69358;SDS011;56520;49.066;8.660;2024-03-02T02:42:44;2.97;;;1.13;;
69358;SDS011;56520;49.066;8.660;2024-03-02T02:47:36;3.88;;;1.52;;
69358;SDS011;56520;49.066;8.660;2024-03-02T02:50:04;2.33;;;1.05;;
69358;SDS011;56520;49.066;8.660;2024-03-02T02:52:34;2.58;;;1.02;;
69358;SDS011;56520;49.066;8.660;2024-03-02T02:55:02;2.17;;;0.95;;
69358;SDS011;56520;49.066;8.660;2024-03-02T02:57:28;2.22;;;1.00;;
69358;SDS011;56520;49.066;8.660;2024-03-02T02:59:56;3.17;;;1.42;;
69358;SDS011;56520;49.066;8.660;2024-03-02T03:02:22;3.00;;;1.27;;
69358;SDS011;56520;49.066;8.660;2024-03-02T03:07:13;4.05;;;1.38;;
69358;SDS011;56520;49.066;8.660;2024-03-02T03:12:04;1.80;;;0.93;;
69358;SDS011;56520;49.066;8.660;2024-03-02T03:16:54;2.30;;;0.70;;
69358;SDS011;56520;49.066;8.660;2024-03-02T03:19:20;1.52;;;0.80;;
69358;SDS011;56520;49.066;8.660;2024-03-02T03:24:10;3.43;;;1.10;;
69358;SDS011;56520;49.066;8.660;2024-03-02T03:29:01;1.55;;;0.73;;
69358;SDS011;56520;49.066;8.660;2024-03-02T03:33:53;2.78;;;1.27;;
69358;SDS011;56520;49.066;8.660;2024-03-02T03:36:18;4.50;;;1.35;;
69358;SDS011;56520;49.066;8.660;2024-03-02T03:41:09;3.47;;;1.30;;
69358;SDS011;56520;49.066;8.660;2024-03-02T03:46:00;2.72;;;1.17;;
69358;SDS011;56520;49.066;8.660;2024-03-02T03:50:55;2.72;;;1.20;;
69358;SDS011;56520;49.066;8.660;2024-03-02T03:53:21;4.30;;;1.58;;
69358;SDS011;56520;49.066;8.660;2024-03-02T03:55:47;5.97;;;2.00;;
69358;SDS011;56520;49.066;8.660;2024-03-02T03:58:14;5.30;;;2.13;;
69358;SDS011;56520;49.066;8.660;2024-03-02T04:00:41;3.88;;;1.55;;
69358;SDS011;56520;49.066;8.660;2024-03-02T04:05:32;4.70;;;1.53;;
69358;SDS011;56520;49.066;8.660;2024-03-02T04:07:57;4.47;;;1.77;;
69358;SDS011;56520;49.066;8.660;2024-03-02T04:12:49;7.80;;;2.45;;
69358;SDS011;56520;49.066;8.660;2024-03-02T04:17:41;5.40;;;1.60;;
69358;SDS011;56520;49.066;8.660;2024-03-02T04:20:06;3.75;;;1.50;;
69358;SDS011;56520;49.066;8.660;2024-03-02T04:24:58;3.38;;;1.67;;
69358;SDS011;56520;49.066;8.660;2024-03-02T04:29:49;4.97;;;2.40;;
69358;SDS011;56520;49.066;8.660;2024-03-02T04:34:40;5.30;;;2.05;;
69358;SDS011;56520;49.066;8.660;2024-03-02T04:39:31;3.33;;;1.63;;
69358;SDS011;56520;49.066;8.660;2024-03-02T04:44:23;7.82;;;1.70;;
69358;SDS011;56520;49.066;8.660;2024-03-02T04:49:14;3.97;;;2.00;;
69358;SDS011;56520;49.066;8.660;2024-03-02T04:54:04;4.77;;;2.20;;
69358;SDS011;56520;49.066;8.660;2024-03-02T04:59:01;3.63;;;1.70;;
69358;SDS011;56520;49.066;8.660;2024-03-02T05:03:52;6.80;;;2.73;;
69358;SDS011;56520;49.066;8.660;2024-03-02T05:06:17;5.88;;;2.88;;
69358;SDS011;56520;49.066;8.660;2024-03-02T05:08:42;6.05;;;2.42;;
69358;SDS011;56520;49.066;8.660;2024-03-02T05:11:09;7.22;;;2.70;;
69358;SDS011;56520;49.066;8.660;2024-03-02T05:13:53;6.22;;;2.85;;
69358;SDS011;56520;49.066;8.660;2024-03-02T05:18:44;4.53;;;2.13;;
69358;SDS011;56520;49.066;8.660;2024-03-02T05:21:09;6.75;;;3.15;;
69358;SDS011;56520;49.066;8.660;2024-03-02T05:23:36;7.35;;;2.97;;
69358;SDS011;56520;49.066;8.660;2024-03-02T05:28:27;4.28;;;1.98;;
69358;SDS011;56520;49.066;8.660;2024-03-02T05:33:18;4.72;;;1.85;;
69358;SDS011;56520;49.066;8.660;2024-03-02T05:35:47;5.32;;;2.33;;
69358;SDS011;56520;49.066;8.660;2024-03-02T05:38:14;4.60;;;1.92;;
69358;SDS011;56520;49.066;8.660;2024-03-02T05:40:41;5.05;;;2.40;;
69358;SDS011;56520;49.066;8.660;2024-03-02T05:45:32;5.43;;;1.95;;
69358;SDS011;56520;49.066;8.660;2024-03-02T05:47:58;4.63;;;1.90;;
69358;SDS011;56520;49.066;8.660;2024-03-02T05:52:48;2.60;;;0.97;;
69358;SDS011;56520;49.066;8.660;2024-03-02T05:57:40;4.90;;;1.92;;
69358;SDS011;56520;49.066;8.660;2024-03-02T06:00:08;4.20;;;1.63;;
69358;SDS011;56520;49.066;8.660;2024-03-02T06:05:00;6.93;;;2.28;;
69358;SDS011;56520;49.066;8.660;2024-03-02T06:09:51;4.50;;;1.43;;
69358;SDS011;56520;49.066;8.660;2024-03-02T06:12:17;4.85;;;1.75;;
69358;SDS011;56520;49.066;8.660;2024-03-02T06:14:43;5.28;;;2.20;;
69358;SDS011;56520;49.066;8.660;2024-03-02T06:19:34;5.35;;;1.98;;
69358;SDS011;56520;49.066;8.660;2024-03-02T06:24:25;3.38;;;1.60;;
69358;SDS011;56520;49.066;8.660;2024-03-02T06:29:17;2.95;;;1.40;;
69358;SDS011;56520;49.066;8.660;2024-03-02T06:34:07;3.15;;;1.30;;
69358;SDS011;56520;49.066;8.660;2024-03-02T06:36:33;4.72;;;1.80;;
69358;SDS011;56520;49.066;8.660;2024-03-02T06:41:24;4.22;;;1.70;;
69358;SDS011;56520;49.066;8.660;2024-03-02T06:43:51;4.93;;;1.90;;
69358;SDS011;56520;49.066;8.660;2024-03-02T06:46:24;4.90;;;2.25;;
69358;SDS011;56520;49.066;8.660;2024-03-02T06:48:50;10.73;;;4.07;;
69358;SDS011;56520;49.066;8.660;2024-03-02T06:53:41;17.03;;;6.87;;
69358;SDS011;56520;49.066;8.660;2024-03-02T06:58:32;7.18;;;3.50;;
69358;SDS011;56520;49.066;8.660;2024-03-02T07:03:23;6.60;;;2.33;;
69358;SDS011;56520;49.066;8.660;2024-03-02T07:08:13;6.40;;;2.87;;
69358;SDS011;56520;49.066;8.660;2024-03-02T07:13:04;8.37;;;2.83;;
69358;SDS011;56520;49.066;8.660;2024-03-02T07:15:30;8.20;;;4.07;;
69358;SDS011;56520;49.066;8.660;2024-03-02T07:18:12;6.68;;;2.60;;
69358;SDS011;56520;49.066;8.660;2024-03-02T07:23:03;5.72;;;3.03;;
69358;SDS011;56520;49.066;8.660;2024-03-02T07:27:55;8.15;;;2.65;;
69358;SDS011;56520;49.066;8.660;2024-03-02T07:30:21;8.85;;;2.53;;
69358;SDS011;56520;49.066;8.660;2024-03-02T07:35:14;5.53;;;2.50;;
69358;SDS011;56520;49.066;8.660;2024-03-02T07:40:06;6.03;;;2.55;;
69358;SDS011;56520;49.066;8.660;2024-03-02T07:42:36;6.88;;;2.83;;
69358;SDS011;56520;49.066;8.660;2024-03-02T07:45:03;7.65;;;2.65;;
69358;SDS011;56520;49.066;8.660;2024-03-02T07:49:54;6.80;;;3.38;;
69358;SDS011;56520;49.066;8.660;2024-03-02T07:52:20;8.10;;;3.90;;
69358;SDS011;56520;49.066;8.660;2024-03-02T07:54:45;8.38;;;4.00;;
69358;SDS011;56520;49.066;8.660;2024-03-02T07:57:11;9.93;;;3.13;;
69358;SDS011;56520;49.066;8.660;2024-03-02T07:59:36;10.18;;;4.10;;
69358;SDS011;56520;49.066;8.660;2024-03-02T08:02:02;8.85;;;3.53;;
69358;SDS011;56520;49.066;8.660;2024-03-02T08:04:28;7.63;;;3.35;;
69358;SDS011;56520;49.066;8.660;2024-03-02T08:06:53;10.93;;;4.40;;
69358;SDS011;56520;49.066;8.660;2024-03-02T08:09:19;13.98;;;3.47;;
69358;SDS011;56520;49.066;8.660;2024-03-02T08:11:45;10.55;;;3.90;;
69358;SDS011;56520;49.066;8.660;2024-03-02T08:14:10;6.28;;;3.22;;
69358;SDS011;56520;49.066;8.660;2024-03-02T08:16:36;6.40;;;2.67;;
69358;SDS011;56520;49.066;8.660;2024-03-02T08:19:05;9.90;;;4.07;;
69358;SDS011;56520;49.066;8.660;2024-03-02T08:21:30;8.18;;;3.85;;
69358;SDS011;56520;49.066;8.660;2024-03-02T08:23:57;7.63;;;3.15;;
69358;SDS011;56520;49.066;8.660;2024-03-02T08:26:23;7.45;;;3.00;;
69358;SDS011;56520;49.066;8.660;2024-03-02T08:28:48;7.63;;;3.05;;
69358;SDS011;56520;49.066;8.660;2024-03-02T08:31:14;6.15;;;2.63;;
69358;SDS011;56520;49.066;8.660;2024-03-02T08:33:39;6.60;;;2.88;;
69358;SDS011;56520;49.066;8.660;2024-03-02T08:36:05;8.18;;;3.13;;
69358;SDS011;56520;49.066;8.660;2024-03-02T08:38:31;9.20;;;3.22;;
69358;SDS011;56520;49.066;8.660;2024-03-02T08:40:57;7.35;;;2.78;;
69358;SDS011;56520;49.066;8.660;2024-03-02T08:43:23;7.32;;;2.42;;
69358;SDS011;56520;49.066;8.660;2024-03-02T08:45:49;6.10;;;2.50;;
69358;SDS011;56520;49.066;8.660;2024-03-02T08:48:15;7.78;;;3.20;;
69358;SDS011;56520;49.066;8.660;2024-03-02T08:50:41;7.72;;;2.85;;
69358;SDS011;56520;49.066;8.660;2024-03-02T08:53:06;7.65;;;2.70;;
69358;SDS011;56520;49.066;8.660;2024-03-02T08:55:32;6.22;;;2.38;;
69358;SDS011;56520;49.066;8.660;2024-03-02T08:57:57;6.07;;;1.90;;
69358;SDS011;56520;49.066;8.660;2024-03-02T09:00:23;5.70;;;2.13;;
69358;SDS011;56520;49.066;8.660;2024-03-02T09:02:49;6.35;;;2.58;;
69358;SDS011;56520;49.066;8.660;2024-03-02T09:05:14;6.30;;;2.33;;
69358;SDS011;56520;49.066;8.660;2024-03-02T09:07:43;5.80;;;2.13;;
69358;SDS011;56520;49.066;8.660;2024-03-02T09:10:11;5.65;;;2.00;;
69358;SDS011;56520;49.066;8.660;2024-03-02T09:12:36;4.82;;;1.70;;
69358;SDS011;56520;49.066;8.660;2024-03-02T09:15:03;4.93;;;2.13;;
69358;SDS011;56520;49.066;8.660;2024-03-02T09:17:29;6.53;;;2.13;;
69358;SDS011;56520;49.066;8.660;2024-03-02T09:19:55;5.88;;;1.90;;
69358;SDS011;56520;49.066;8.660;2024-03-02T09:22:20;5.47;;;2.30;;
69358;SDS011;56520;49.066;8.660;2024-03-02T09:24:46;5.05;;;2.05;;
69358;SDS011;56520;49.066;8.660;2024-03-02T09:27:11;6.70;;;1.92;;
69358;SDS011;56520;49.066;8.660;2024-03-02T09:29:37;5.60;;;2.20;;
69358;SDS011;56520;49.066;8.660;2024-03-02T09:32:03;5.65;;;2.03;;
69358;SDS011;56520;49.066;8.660;2024-03-02T09:34:33;5.85;;;1.90;;
69358;SDS011;56520;49.066;8.660;2024-03-02T09:36:59;4.88;;;1.60;;
69358;SDS011;56520;49.066;8.660;2024-03-02T09:39:25;7.22;;;2.60;;
69358;SDS011;56520;49.066;8.660;2024-03-02T09:41:51;4.72;;;1.58;;
69358;SDS011;56520;49.066;8.660;2024-03-02T09:44:17;5.35;;;2.20;;
69358;SDS011;56520;49.066;8.660;2024-03-02T09:46:43;4.47;;;1.60;;
69358;SDS011;56520;49.066;8.660;2024-03-02T09:49:09;5.05;;;1.85;;
69358;SDS011;56520;49.066;8.660;2024-03-02T09:51:36;4.57;;;1.55;;
69358;SDS011;56520;49.066;8.660;2024-03-02T09:54:02;4.50;;;1.42;;
69358;SDS011;56520;49.066;8.660;2024-03-02T09:56:28;6.15;;;2.22;;
69358;SDS011;56520;49.066;8.660;2024-03-02T09:58:53;3.97;;;1.40;;
69358;SDS011;56520;49.066;8.660;2024-03-02T10:01:19;7.55;;;1.50;;
69358;SDS011;56520;49.066;8.660;2024-03-02T10:03:44;5.70;;;2.03;;
69358;SDS011;56520;49.066;8.660;2024-03-02T10:08:52;4.38;;;1.55;;
69358;SDS011;56520;49.066;8.660;2024-03-02T10:14:03;6.18;;;1.55;;
69358;SDS011;56520;49.066;8.660;2024-03-02T10:16:38;4.75;;;1.40;;
69358;SDS011;56520;49.066;8.660;2024-03-02T10:19:21;5.60;;;1.60;;
69358;SDS011;56520;49.066;8.660;2024-03-02T10:21:51;5.20;;;1.90;;
69358;SDS011;56520;49.066;8.660;2024-03-02T10:24:18;4.53;;;1.65;;
69358;SDS011;56520;49.066;8.660;2024-03-02T10:26:44;4.65;;;1.73;;
69358;SDS011;56520;49.066;8.660;2024-03-02T10:29:10;4.00;;;1.35;;
69358;SDS011;56520;49.066;8.660;2024-03-02T10:31:36;4.50;;;1.73;;
69358;SDS011;56520;49.066;8.660;2024-03-02T10:34:06;4.40;;;1.55;;
69358;SDS011;56520;49.066;8.660;2024-03-02T10:36:35;5.00;;;1.52;;
69358;SDS011;56520;49.066;8.660;2024-03-02T10:39:02;6.78;;;1.52;;
69358;SDS011;56520;49.066;8.660;2024-03-02T10:41:29;4.05;;;1.40;;
69358;SDS011;56520;49.066;8.660;2024-03-02T10:44:04;4.43;;;1.50;;
69358;SDS011;56520;49.066;8.660;2024-03-02T10:46:30;5.05;;;1.40;;
69358;SDS011;56520;49.066;8.660;2024-03-02T10:48:58;4.65;;;1.75;;
69358;SDS011;56520;49.066;8.660;2024-03-02T10:51:24;4.93;;;1.50;;
69358;SDS011;56520;49.066;8.660;2024-03-02T10:53:56;4.15;;;1.45;;
69358;SDS011;56520;49.066;8.660;2024-03-02T10:56:32;4.22;;;1.35;;
69358;SDS011;56520;49.066;8.660;2024-03-02T10:59:28;5.82;;;1.70;;
69358;SDS011;56520;49.066;8.660;2024-03-02T11:01:59;4.13;;;1.30;;
69358;SDS011;56520;49.066;8.660;2024-03-02T11:04:26;3.80;;;1.30;;
69358;SDS011;56520;49.066;8.660;2024-03-02T11:06:52;3.90;;;1.25;;
69358;SDS011;56520;49.066;8.660;2024-03-02T11:09:25;3.92;;;1.30;;
69358;SDS011;56520;49.066;8.660;2024-03-02T11:12:00;3.10;;;1.10;;
69358;SDS011;56520;49.066;8.660;2024-03-02T11:14:29;3.00;;;1.20;;
69358;SDS011;56520;49.066;8.660;2024-03-02T11:16:57;2.60;;;0.90;;
69358;SDS011;56520;49.066;8.660;2024-03-02T11:19:24;2.80;;;0.90;;
69358;SDS011;56520;49.066;8.660;2024-03-02T11:21:51;2.63;;;1.00;;
69358;SDS011;56520;49.066;8.660;2024-03-02T11:27:01;3.03;;;1.10;;
69358;SDS011;56520;49.066;8.660;2024-03-02T11:32:06;1.95;;;0.70;;
69358;SDS011;56520;49.066;8.660;2024-03-02T11:34:34;2.40;;;1.00;;
69358;SDS011;56520;49.066;8.660;2024-03-02T11:37:01;0.98;;;0.50;;
69358;SDS011;56520;49.066;8.660;2024-03-02T11:39:30;0.63;;;0.50;;
69358;SDS011;56520;49.066;8.660;2024-03-02T11:41:56;1.52;;;0.60;;
69358;SDS011;56520;49.066;8.660;2024-03-02T11:44:22;0.60;;;0.40;;
69358;SDS011;56520;49.066;8.660;2024-03-02T11:46:58;1.42;;;0.70;;
69358;SDS011;56520;49.066;8.660;2024-03-02T11:52:16;2.08;;;0.60;;
69358;SDS011;56520;49.066;8.660;2024-03-02T11:54:43;2.45;;;0.80;;
69358;SDS011;56520;49.066;8.660;2024-03-02T11:57:20;3.53;;;0.90;;
69358;SDS011;56520;49.066;8.660;2024-03-02T11:59:49;0.88;;;0.52;;
69358;SDS011;56520;49.066;8.660;2024-03-02T12:02:16;1.95;;;0.70;;
69358;SDS011;56520;49.066;8.660;2024-03-02T12:04:45;4.13;;;1.00;;
69358;SDS011;56520;49.066;8.660;2024-03-02T12:07:18;2.22;;;0.98;;
69358;SDS011;56520;49.066;8.660;2024-03-02T12:09:46;3.35;;;1.05;;
69358;SDS011;56520;49.066;8.660;2024-03-02T12:12:12;3.63;;;1.20;;
69358;SDS011;56520;49.066;8.660;2024-03-02T12:14:49;2.50;;;0.88;;
69358;SDS011;56520;49.066;8.660;2024-03-02T12:17:16;2.80;;;0.90;;
69358;SDS011;56520;49.066;8.660;2024-03-02T12:19:41;3.80;;;1.20;;
69358;SDS011;56520;49.066;8.660;2024-03-02T12:22:06;1.33;;;0.70;;
69358;SDS011;56520;49.066;8.660;2024-03-02T12:24:32;2.00;;;0.70;;
69358;SDS011;56520;49.066;8.660;2024-03-02T12:26:57;4.10;;;1.00;;
69358;SDS011;56520;49.066;8.660;2024-03-02T12:29:23;1.70;;;0.80;;
69358;SDS011;56520;49.066;8.660;2024-03-02T12:31:49;2.22;;;0.70;;
69358;SDS011;56520;49.066;8.660;2024-03-02T12:34:15;3.13;;;1.17;;
69358;SDS011;56520;49.066;8.660;2024-03-02T12:36:42;3.85;;;1.20;;
69358;SDS011;56520;49.066;8.660;2024-03-02T12:39:08;4.90;;;1.40;;
69358;SDS011;56520;49.066;8.660;2024-03-02T12:41:38;3.70;;;1.20;;
69358;SDS011;56520;49.066;8.660;2024-03-02T12:44:04;4.00;;;1.27;;
69358;SDS011;56520;49.066;8.660;2024-03-02T12:46:30;3.08;;;1.15;;
69358;SDS011;56520;49.066;8.660;2024-03-02T12:49:10;3.33;;;1.00;;
69358;SDS011;56520;49.066;8.660;2024-03-02T12:51:39;3.35;;;1.08;;
69358;SDS011;56520;49.066;8.660;2024-03-02T12:54:10;2.60;;;0.90;;
69358;SDS011;56520;49.066;8.660;2024-03-02T12:56:40;2.35;;;0.90;;
69358;SDS011;56520;49.066;8.660;2024-03-02T12:59:10;1.85;;;0.68;;
69358;SDS011;56520;49.066;8.660;2024-03-02T13:01:55;4.07;;;1.08;;
69358;SDS011;56520;49.066;8.660;2024-03-02T13:04:24;2.40;;;0.90;;
69358;SDS011;56520;49.066;8.660;2024-03-02T13:06:51;3.20;;;1.08;;
69358;SDS011;56520;49.066;8.660;2024-03-02T13:09:17;2.05;;;0.85;;
69358;SDS011;56520;49.066;8.660;2024-03-02T13:11:43;1.73;;;0.70;;
69358;SDS011;56520;49.066;8.660;2024-03-02T13:14:10;3.20;;;0.95;;
69358;SDS011;56520;49.066;8.660;2024-03-02T13:16:39;1.75;;;0.88;;
69358;SDS011;56520;49.066;8.660;2024-03-02T13:19:07;2.90;;;0.63;;
69358;SDS011;56520;49.066;8.660;2024-03-02T13:21:38;2.00;;;0.80;;
69358;SDS011;56520;49.066;8.660;2024-03-02T13:24:05;3.08;;;1.10;;
69358;SDS011;56520;49.066;8.660;2024-03-02T13:26:30;2.88;;;1.00;;
69358;SDS011;56520;49.066;8.660;2024-03-02T13:28:56;2.35;;;0.85;;
69358;SDS011;56520;49.066;8.660;2024-03-02T13:31:22;3.10;;;1.20;;
69358;SDS011;56520;49.066;8.660;2024-03-02T13:33:47;2.17;;;0.80;;
69358;SDS011;56520;49.066;8.660;2024-03-02T13:36:13;2.67;;;0.90;;
69358;SDS011;56520;49.066;8.660;2024-03-02T13:38:38;4.18;;;1.00;;
69358;SDS011;56520;49.066;8.660;2024-03-02T13:41:04;1.98;;;0.90;;
69358;SDS011;56520;49.066;8.660;2024-03-02T13:43:30;2.00;;;0.90;;
69358;SDS011;56520;49.066;8.660;2024-03-02T13:45:59;3.38;;;0.73;;
69358;SDS011;56520;49.066;8.660;2024-03-02T13:48:25;1.65;;;0.70;;
69358;SDS011;56520;49.066;8.660;2024-03-02T13:50:53;3.45;;;0.90;;
69358;SDS011;56520;49.066;8.660;2024-03-02T13:53:19;3.08;;;1.00;;
69358;SDS011;56520;49.066;8.660;2024-03-02T13:55:45;1.90;;;0.80;;
69358;SDS011;56520;49.066;8.660;2024-03-02T13:58:11;3.58;;;1.30;;
69358;SDS011;56520;49.066;8.660;2024-03-02T14:00:37;2.38;;;0.80;;
69358;SDS011;56520;49.066;8.660;2024-03-02T14:03:04;3.15;;;0.90;;
69358;SDS011;56520;49.066;8.660;2024-03-02T14:05:30;2.38;;;0.88;;
69358;SDS011;56520;49.066;8.660;2024-03-02T14:07:56;2.90;;;0.85;;
69358;SDS011;56520;49.066;8.660;2024-03-02T14:10:21;2.38;;;0.90;;
69358;SDS011;56520;49.066;8.660;2024-03-02T14:12:48;2.00;;;0.80;;
69358;SDS011;56520;49.066;8.660;2024-03-02T14:15:13;1.95;;;0.70;;
69358;SDS011;56520;49.066;8.660;2024-03-02T14:17:39;1.77;;;0.70;;
69358;SDS011;56520;49.066;8.660;2024-03-02T14:20:05;1.08;;;0.40;;
69358;SDS011;56520;49.066;8.660;2024-03-02T14:22:31;1.63;;;0.60;;
69358;SDS011;56520;49.066;8.660;2024-03-02T14:24:58;1.75;;;0.73;;
69358;SDS011;56520;49.066;8.660;2024-03-02T14:27:24;1.73;;;0.70;;
69358;SDS011;56520;49.066;8.660;2024-03-02T14:29:50;1.95;;;0.82;;
69358;SDS011;56520;49.066;8.660;2024-03-02T14:32:16;1.58;;;0.60;;
69358;SDS011;56520;49.066;8.660;2024-03-02T14:34:41;1.98;;;0.68;;
69358;SDS011;56520;49.066;8.660;2024-03-02T14:37:07;1.73;;;0.70;;
69358;SDS011;56520;49.066;8.660;2024-03-02T14:39:32;1.65;;;0.60;;
69358;SDS011;56520;49.066;8.660;2024-03-02T14:41:59;1.55;;;0.68;;
69358;SDS011;56520;49.066;8.660;2024-03-02T14:44:26;1.20;;;0.52;;
69358;SDS011;56520;49.066;8.660;2024-03-02T14:46:51;1.60;;;0.60;;
69358;SDS011;56520;49.066;8.660;2024-03-02T14:49:17;1.85;;;0.57;;
69358;SDS011;56520;49.066;8.660;2024-03-02T14:51:43;3.05;;;0.95;;
69358;SDS011;56520;49.066;8.660;2024-03-02T14:54:09;2.00;;;1.00;;
69358;SDS011;56520;49.066;8.660;2024-03-02T14:56:35;2.00;;;0.60;;
69358;SDS011;56520;49.066;8.660;2024-03-02T14:59:00;2.03;;;0.65;;
69358;SDS011;56520;49.066;8.660;2024-03-02T15:01:25;2.03;;;0.80;;
69358;SDS011;56520;49.066;8.660;2024-03-02T15:03:51;2.50;;;0.80;;
69358;SDS011;56520;49.066;8.660;2024-03-02T15:06:17;2.70;;;0.93;;
69358;SDS011;56520;49.066;8.660;2024-03-02T15:08:43;0.80;;;0.50;;
69358;SDS011;56520;49.066;8.660;2024-03-02T15:11:10;1.42;;;0.77;;
69358;SDS011;56520;49.066;8.660;2024-03-02T15:13:36;1.55;;;0.75;;
69358;SDS011;56520;49.066;8.660;2024-03-02T15:16:01;2.22;;;0.82;;
69358;SDS011;56520;49.066;8.660;2024-03-02T15:18:27;1.23;;;0.57;;
69358;SDS011;56520;49.066;8.660;2024-03-02T15:20:52;1.52;;;0.60;;
69358;SDS011;56520;49.066;8.660;2024-03-02T15:23:18;1.80;;;0.77;;
69358;SDS011;56520;49.066;8.660;2024-03-02T15:25:43;1.50;;;0.70;;
69358;SDS011;56520;49.066;8.660;2024-03-02T15:28:09;0.95;;;0.55;;
69358;SDS011;56520;49.066;8.660;2024-03-02T15:30:34;1.70;;;0.55;;
69358;SDS011;56520;49.066;8.660;2024-03-02T15:33:00;1.83;;;0.77;;
69358;SDS011;56520;49.066;8.660;2024-03-02T15:35:25;0.98;;;0.60;;
69358;SDS011;56520;49.066;8.660;2024-03-02T15:37:51;2.35;;;1.00;;
69358;SDS011;56520;49.066;8.660;2024-03-02T15:40:17;1.55;;;0.55;;
69358;SDS011;56520;49.066;8.660;2024-03-02T15:42:42;2.97;;;0.93;;
69358;SDS011;56520;49.066;8.660;2024-03-02T15:45:07;3.17;;;0.90;;
69358;SDS011;56520;49.066;8.660;2024-03-02T15:47:33;4.40;;;1.30;;
69358;SDS011;56520;49.066;8.660;2024-03-02T15:50:00;3.85;;;1.40;;
69358;SDS011;56520;49.066;8.660;2024-03-02T15:52:27;5.28;;;2.00;;
69358;SDS011;56520;49.066;8.660;2024-03-02T15:54:52;6.10;;;1.92;;
69358;SDS011;56520;49.066;8.660;2024-03-02T15:57:18;6.43;;;2.22;;
69358;SDS011;56520;49.066;8.660;2024-03-02T15:59:44;4.93;;;1.70;;
69358;SDS011;56520;49.066;8.660;2024-03-02T16:02:09;6.15;;;2.42;;
69358;SDS011;56520;49.066;8.660;2024-03-02T16:04:35;5.82;;;1.90;;
69358;SDS011;56520;49.066;8.660;2024-03-02T16:07:00;7.65;;;2.47;;
69358;SDS011;56520;49.066;8.660;2024-03-02T16:09:26;6.47;;;2.20;;
69358;SDS011;56520;49.066;8.660;2024-03-02T16:11:51;6.72;;;2.00;;
69358;SDS011;56520;49.066;8.660;2024-03-02T16:14:17;6.22;;;1.65;;
69358;SDS011;56520;49.066;8.660;2024-03-02T16:16:42;4.05;;;1.55;;
69358;SDS011;56520;49.066;8.660;2024-03-02T16:19:08;4.47;;;1.48;;
69358;SDS011;56520;49.066;8.660;2024-03-02T16:21:33;5.85;;;1.90;;
69358;SDS011;56520;49.066;8.660;2024-03-02T16:23:59;3.92;;;1.52;;
69358;SDS011;56520;49.066;8.660;2024-03-02T16:26:25;6.97;;;1.88;;
69358;SDS011;56520;49.066;8.660;2024-03-02T16:28:50;5.35;;;1.42;;
69358;SDS011;56520;49.066;8.660;2024-03-02T16:31:16;5.32;;;1.85;;
69358;SDS011;56520;49.066;8.660;2024-03-02T16:33:43;6.18;;;1.52;;
69358;SDS011;56520;49.066;8.660;2024-03-02T16:36:11;4.50;;;1.50;;
69358;SDS011;56520;49.066;8.660;2024-03-02T16:38:37;4.70;;;1.50;;
69358;SDS011;56520;49.066;8.660;2024-03-02T16:41:03;3.95;;;1.40;;
69358;SDS011;56520;49.066;8.660;2024-03-02T16:43:29;4.03;;;1.27;;
69358;SDS011;56520;49.066;8.660;2024-03-02T16:45:54;3.47;;;1.10;;
69358;SDS011;56520;49.066;8.660;2024-03-02T16:48:20;3.05;;;1.20;;
69358;SDS011;56520;49.066;8.660;2024-03-02T16:50:45;5.00;;;1.35;;
69358;SDS011;56520;49.066;8.660;2024-03-02T16:53:11;2.92;;;1.10;;
69358;SDS011;56520;49.066;8.660;2024-03-02T16:55:37;6.40;;;2.05;;
69358;SDS011;56520;49.066;8.660;2024-03-02T16:58:02;5.53;;;2.15;;
69358;SDS011;56520;49.066;8.660;2024-03-02T17:00:28;5.65;;;2.15;;
69358;SDS011;56520;49.066;8.660;2024-03-02T17:02:53;5.38;;;1.70;;
69358;SDS011;56520;49.066;8.660;2024-03-02T17:05:19;5.53;;;2.10;;
69358;SDS011;56520;49.066;8.660;2024-03-02T17:07:46;4.72;;;1.77;;
69358;SDS011;56520;49.066;8.660;2024-03-02T17:10:12;5.25;;;2.17;;
69358;SDS011;56520;49.066;8.660;2024-03-02T17:12:38;4.72;;;1.60;;
69358;SDS011;56520;49.066;8.660;2024-03-02T17:15:03;4.95;;;1.60;;
69358;SDS011;56520;49.066;8.660;2024-03-02T17:17:30;4.75;;;1.60;;
69358;SDS011;56520;49.066;8.660;2024-03-02T17:19:55;4.53;;;1.60;;
69358;SDS011;56520;49.066;8.660;2024-03-02T17:22:21;6.22;;;2.20;;